Aérodrome :
LOGIN :

S'inscrire | Disclaimer

   EN    FR    IT 

 










Légende :    VFR   VFR Marginal   IFR   IFR Intensif   IFR Très Intensif
Visi : 
Plafond : 
>= 8 km
>= 3000ft
5 à 8 km
1000 à 3000 ft
1500m à 5 km
500 à 1000 ft
800 à 1500m
200 à 500 ft
< 800m
< 200 ft
Symboles :   Orages  Brouillard  Fortes neiges  Fortes précipitations  Vent > 20 kt
SIGMETs :   Divers  Orages  Givrage  Turbulence  Onde Orograph.  Cendres Volcan.






- Altitude de l'aérodrome : 1306 ft
- Code IATA : ACH


LSZR - Alten Rhein

DERNIER METAR :
  • 021620Z 27007KT CAVOK 25/14 Q1019 NOSIG RMK L

METARs EXPIRÉS :
  • 021550Z 27007KT CAVOK 25/12 Q1019 NOSIG RMK L
  • 021520Z 27007KT CAVOK 25/12 Q1020 NOSIG RMK K
  • 021450Z AUTO 27007KT 9999 NCD 24/13 Q1020
  • 020250Z AUTO 08002KT 9999 NCD 10/09 Q1023
  • 021420Z AUTO 28007KT 240V300 9999 NCD 24/14 Q1020
  • 021350Z 28006KT CAVOK 24/14 Q1020 NOSIG RMK I

TAF TAF LSZR
Valide du 02 à 15h jusqu'au 03 à 00h UTC


021425Z 0215/0224 28006KT CAVOK
ATIS : +41 71 858 51 66



MET'MAP, la Météo Aéronautique d'un coup d'oeil ! - Copyright ORBIFLY Décembre 2007 - Disclaimer

ORBIFLY MET'MAP TEAM :

Programmation & Développement : Alexandra Zaïnal
Sur une idée originale de : Baudouin d'Aumeries
Soutien technique & logistique : Manuel Goepfert
Assistance : Marc-Olivier Méhu




SOURCES & CREDITS :

   NOAA